Time;durP1;ratioP1;P1;durP2;ratioP2;P2;SDS_P1;SDS_P2;PMS_P1;PMS_P2;Temp;Humidity;BMP_temperature;BMP_pressure;BME280_temperature;BME280_humidity;BME280_pressure;Samples;Min_cycle;Max_cycle;Signal;HPM_P1;HPM_P2
2023/06/14 00:01:06;;;;;;;8.47;4.47;;;18.20;99.90;;;18.50;80.42;94686.50;5041465;28;20451;-56
2023/06/14 00:03:33;;;;;;;5.00;3.40;;;18.20;99.90;;;18.49;80.67;94689.34;5037666;28;20992;-55
2023/06/14 00:06:00;;;;;;;4.90;4.43;;;18.20;99.90;;;18.47;80.52;94686.88;5032660;28;20487;-56
2023/06/14 00:08:29;;;;;;;3.83;3.63;;;18.20;99.90;;;18.46;80.69;94679.91;5033311;28;20963;-58
2023/06/14 00:10:56;;;;;;;4.70;4.40;;;18.20;99.90;;;18.45;80.25;94683.56;5030095;28;20464;-54
2023/06/14 00:13:23;;;;;;;5.07;4.50;;;18.20;99.90;;;18.44;80.33;94681.94;5031470;28;20457;-57
2023/06/14 00:15:54;;;;;;;3.90;3.70;;;18.20;99.90;;;18.43;80.47;94680.28;5029687;28;20525;-57
2023/06/14 00:18:23;;;;;;;3.43;3.23;;;18.20;99.90;;;18.42;80.53;94689.31;5034504;28;20451;-58
2023/06/14 00:20:51;;;;;;;4.23;3.80;;;18.20;99.90;;;18.40;80.55;94678.00;5032998;28;20468;-55
2023/06/14 00:23:20;;;;;;;3.97;3.53;;;18.10;99.90;;;18.39;81.03;94682.53;5028333;28;20453;-56
2023/06/14 00:25:48;;;;;;;4.17;3.87;;;18.10;99.90;;;18.40;80.72;94678.00;5034821;28;20480;-57
2023/06/14 00:28:16;;;;;;;4.63;4.17;;;18.20;99.90;;;18.39;80.83;94677.19;5029035;28;20453;-56
2023/06/14 00:30:45;;;;;;;5.23;3.77;;;18.10;99.90;;;18.39;80.52;94673.72;5035485;28;20467;-58
2023/06/14 00:33:12;;;;;;;3.87;3.67;;;18.10;99.90;;;18.38;81.15;94667.56;5031110;28;20453;-58
2023/06/14 00:35:39;;;;;;;4.47;4.17;;;18.10;99.90;;;18.38;80.58;94672.88;5035531;28;20476;-58
2023/06/14 00:38:07;;;;;;;3.60;3.40;;;18.10;99.90;;;18.37;80.61;94665.06;5029757;28;20460;-58
2023/06/14 00:40:35;;;;;;;3.77;3.47;;;18.10;99.90;;;18.37;80.59;94662.41;5035650;28;20546;-54
2023/06/14 00:43:03;;;;;;;7.53;3.93;;;18.10;99.90;;;18.36;80.63;94658.13;5031332;28;20555;-55
2023/06/14 00:45:35;;;;;;;5.13;3.23;;;18.10;99.90;;;18.35;80.96;94659.94;5028801;28;20481;-57
2023/06/14 00:48:02;;;;;;;4.00;3.70;;;18.10;99.90;;;18.35;80.81;94659.13;5032517;28;20578;-56
2023/06/14 00:50:32;;;;;;;4.00;3.80;;;18.10;99.90;;;18.35;80.95;94665.28;5035628;28;20537;-58
2023/06/14 00:52:59;;;;;;;7.93;3.80;;;18.10;99.90;;;18.34;80.79;94654.81;5032645;28;20475;-54
2023/06/14 00:55:26;;;;;;;3.80;3.60;;;18.10;99.90;;;18.34;81.08;94660.97;5034100;28;20488;-54
2023/06/14 00:57:55;;;;;;;4.17;3.87;;;18.10;99.90;;;18.31;80.63;94665.84;5030206;28;20469;-53
2023/06/14 01:00:24;;;;;;;3.97;3.60;;;18.10;99.90;;;18.33;81.17;94663.84;5032225;28;20480;-55
2023/06/14 01:02:51;;;;;;;10.13;4.60;;;18.10;99.90;;;18.33;80.49;94666.50;5031392;28;20490;-55
2023/06/14 01:05:19;;;;;;;3.63;3.43;;;18.10;99.90;;;18.33;80.47;94666.50;5035895;28;20507;-55
2023/06/14 01:08:06;;;;;;;5.17;4.20;;;18.10;99.90;;;18.33;81.02;94656.66;5039508;28;20502;-57
2023/06/14 01:10:41;;;;;;;7.50;4.30;;;18.10;99.90;;;18.34;80.49;94657.47;5037411;28;20934;-55
2023/06/14 01:13:16;;;;;;;4.47;4.17;;;18.10;99.90;;;18.33;80.98;94658.50;5037591;28;20447;-54
2023/06/14 01:15:45;;;;;;;4.37;4.07;;;18.10;99.90;;;18.33;80.72;94656.66;5037686;28;20831;-55
2023/06/14 01:18:17;;;;;;;4.90;4.60;;;18.10;99.90;;;18.34;80.86;94657.47;5032877;28;21217;-54
2023/06/14 01:20:47;;;;;;;11.13;4.80;;;18.10;99.90;;;18.34;80.21;94662.81;5029950;28;20477;-57
2023/06/14 01:23:16;;;;;;;5.83;4.93;;;18.10;99.90;;;18.34;80.57;94660.97;5032866;28;21376;-52
2023/06/14 01:25:44;;;;;;;7.30;5.27;;;18.10;99.90;;;18.34;80.32;94660.13;5032295;28;20573;-57
2023/06/14 01:28:12;;;;;;;6.80;4.63;;;18.10;99.90;;;18.33;79.98;94661.19;5028636;28;20616;-54
2023/06/14 01:30:44;;;;;;;6.13;5.53;;;18.10;99.90;;;18.32;80.24;94662.19;5028894;28;20529;-52
2023/06/14 01:33:14;;;;;;;7.67;4.70;;;18.10;99.90;;;18.30;80.51;94654.38;5036624;28;20447;-58
2023/06/14 01:35:43;;;;;;;5.40;5.00;;;18.10;99.90;;;18.30;80.54;94656.22;5034314;28;20480;-52
2023/06/14 01:38:13;;;;;;;5.23;4.70;;;18.00;99.90;;;18.30;80.04;94653.56;5033117;28;20471;-55
2023/06/14 01:40:42;;;;;;;4.90;4.60;;;18.00;99.90;;;18.28;80.09;94653.78;5033053;28;20522;-55
2023/06/14 01:43:09;;;;;;;5.07;4.67;;;18.00;99.90;;;18.28;80.37;94657.25;5028043;28;20549;-58
2023/06/14 01:45:36;;;;;;;7.70;5.30;;;18.00;99.90;;;18.26;80.09;94656.63;5033591;28;20850;-54
2023/06/14 01:48:04;;;;;;;6.50;5.33;;;18.00;99.90;;;18.26;80.23;94653.13;5033921;28;20844;-57
2023/06/14 01:50:32;;;;;;;4.40;4.10;;;18.00;99.90;;;18.22;79.81;94658.00;5030062;28;21061;-57
2023/06/14 01:52:59;;;;;;;5.30;4.80;;;18.00;99.90;;;18.21;80.27;94669.66;5031537;28;20509;-57
2023/06/14 01:55:26;;;;;;;4.93;4.53;;;18.00;99.90;;;18.20;79.97;94665.38;5028521;28;20473;-55
2023/06/14 01:57:55;;;;;;;6.83;5.47;;;17.90;99.90;;;18.20;80.26;94664.53;5034349;28;20494;-54
2023/06/14 02:00:22;;;;;;;4.30;4.03;;;18.00;99.90;;;18.18;80.24;94664.72;5030056;28;20472;-52
2023/06/14 02:02:50;;;;;;;5.27;4.87;;;17.90;99.90;;;18.17;80.69;94664.91;5033871;28;20622;-56
2023/06/14 02:05:18;;;;;;;5.50;5.13;;;17.90;99.90;;;18.18;80.16;94667.38;5029419;28;20484;-54
2023/06/14 02:07:46;;;;;;;7.60;4.87;;;17.90;99.90;;;18.17;80.07;94681.72;5031838;28;21001;-56
2023/06/14 02:10:14;;;;;;;5.40;4.97;;;17.90;99.90;;;18.16;80.41;94680.06;5032272;28;20465;-56
2023/06/14 02:12:41;;;;;;;6.73;4.73;;;17.90;99.90;;;18.17;80.34;94680.88;5028474;28;21163;-55
2023/06/14 02:15:16;;;;;;;5.33;4.93;;;17.90;99.90;;;18.17;80.25;94683.56;5032717;28;20546;-54
2023/06/14 02:17:44;;;;;;;5.23;4.83;;;17.90;99.90;;;18.18;80.96;94682.53;5028832;28;20443;-55
2023/06/14 02:20:12;;;;;;;5.10;4.70;;;17.90;99.90;;;18.18;80.31;94686.03;5026111;28;20473;-54
2023/06/14 02:22:40;;;;;;;5.07;4.60;;;17.90;99.90;;;18.18;80.69;94688.69;5029500;28;20461;-55
2023/06/14 02:25:08;;;;;;;10.60;4.13;;;18.00;99.90;;;18.18;80.54;94694.00;5034171;28;20476;-57
2023/06/14 02:27:35;;;;;;;4.40;4.00;;;17.90;99.90;;;18.17;79.80;94695.03;5029624;28;20492;-57
2023/06/14 02:30:03;;;;;;;9.17;4.80;;;17.90;99.90;;;18.15;80.11;94691.72;5032582;28;20464;-55
2023/06/14 02:32:34;;;;;;;5.37;4.97;;;17.90;99.90;;;18.14;80.03;94690.09;5029652;28;20445;-53
2023/06/14 02:35:01;;;;;;;4.30;4.03;;;17.90;99.90;;;18.12;79.70;94691.28;5035761;28;20471;-58
2023/06/14 02:37:28;;;;;;;10.20;5.03;;;17.90;99.90;;;18.09;79.32;94695.16;5028236;28;20461;-54
2023/06/14 02:39:55;;;;;;;5.40;4.80;;;17.90;99.90;;;18.05;80.05;94684.06;5027035;28;20477;-57
2023/06/14 02:42:23;;;;;;;5.20;4.90;;;17.80;99.90;;;18.04;79.56;94684.25;5027433;28;20468;-53
2023/06/14 02:44:51;;;;;;;8.93;4.60;;;17.80;99.90;;;18.02;79.96;94689.78;5031422;28;20477;-57
2023/06/14 02:47:18;;;;;;;4.67;4.37;;;17.80;99.90;;;18.02;79.79;94683.63;5028988;28;20950;-56
2023/06/14 02:49:47;;;;;;;5.23;3.87;;;17.80;99.90;;;18.02;80.38;94675.66;5033988;28;21104;-58
2023/06/14 02:52:14;;;;;;;5.00;4.60;;;17.80;99.90;;;18.02;79.80;94673.00;5028935;28;20500;-57
2023/06/14 02:54:42;;;;;;;4.77;4.37;;;17.80;99.90;;;18.03;80.34;94679.94;5027458;28;20559;-55
2023/06/14 02:57:10;;;;;;;5.80;4.50;;;17.80;99.90;;;18.02;79.98;94684.44;5030678;28;20461;-57
2023/06/14 02:59:37;;;;;;;5.00;4.60;;;17.80;99.90;;;18.04;80.07;94692.25;5039306;28;20537;-54
2023/06/14 03:02:06;;;;;;;5.03;4.70;;;17.80;99.90;;;18.03;80.17;94687.94;5026403;28;20460;-53
2023/06/14 03:04:36;;;;;;;4.90;4.50;;;17.80;99.90;;;18.03;80.20;94690.59;5033240;28;20484;-53
2023/06/14 03:07:08;;;;;;;4.77;4.37;;;17.80;99.90;;;18.04;80.60;94697.56;5028674;28;20476;-55
2023/06/14 03:09:37;;;;;;;4.17;3.87;;;17.80;99.90;;;18.04;80.22;94697.56;5031632;28;20468;-56
2023/06/14 03:12:06;;;;;;;7.23;4.13;;;17.80;99.90;;;18.05;80.19;94696.56;5030354;28;20463;-57
2023/06/14 03:14:34;;;;;;;5.10;4.50;;;17.80;99.90;;;18.07;81.05;94699.84;5032759;28;20479;-57
2023/06/14 03:17:02;;;;;;;4.83;4.50;;;17.80;99.90;;;18.07;80.39;94700.66;5030725;28;20456;-57
2023/06/14 03:19:29;;;;;;;8.80;4.93;;;17.80;99.90;;;18.07;80.45;94702.50;5034180;28;20488;-58
2023/06/14 03:21:58;;;;;;;4.67;4.27;;;17.80;99.90;;;18.09;80.27;94716.44;5027337;28;20461;-55
2023/06/14 03:24:28;;;;;;;5.30;4.90;;;17.80;99.90;;;18.07;80.52;94718.47;5030180;28;20483;-57
2023/06/14 03:26:56;;;;;;;5.47;4.60;;;17.80;99.90;;;18.07;80.46;94713.16;5031554;28;21023;-55
2023/06/14 03:29:24;;;;;;;4.30;4.00;;;17.80;99.90;;;18.09;79.99;94709.31;5033818;28;20841;-57
2023/06/14 03:31:59;;;;;;;5.87;5.27;;;17.80;99.90;;;18.10;80.68;94721.56;5032738;28;20466;-56
2023/06/14 03:34:26;;;;;;;7.53;4.73;;;17.90;99.90;;;18.10;79.99;94712.78;5032852;28;20550;-56
2023/06/14 03:36:54;;;;;;;9.80;4.60;;;17.90;99.90;;;18.12;80.17;94715.25;5031926;28;20950;-57
2023/06/14 03:39:21;;;;;;;5.93;4.90;;;17.90;99.90;;;18.13;80.18;94717.72;5030656;28;20507;-54
2023/06/14 03:41:50;;;;;;;4.83;4.40;;;17.90;99.90;;;18.13;80.58;94717.72;5031675;28;20472;-54
2023/06/14 03:44:18;;;;;;;5.50;5.00;;;17.90;99.90;;;18.14;80.61;94715.88;5037051;28;20467;-58
2023/06/14 03:46:46;;;;;;;5.90;4.90;;;17.90;99.90;;;18.15;80.06;94717.53;5034081;28;21004;-58
2023/06/14 03:49:13;;;;;;;4.87;4.33;;;17.90;99.90;;;18.16;80.27;94719.19;5033488;28;20559;-57
2023/06/14 03:51:40;;;;;;;4.60;4.17;;;17.90;99.90;;;18.17;79.95;94710.16;5031114;28;20518;-55
2023/06/14 03:54:07;;;;;;;4.47;4.17;;;17.90;99.90;;;18.19;79.89;94706.31;5035216;28;20566;-54
2023/06/14 03:56:35;;;;;;;4.77;4.03;;;17.90;99.90;;;18.20;80.36;94702.66;5035626;28;21392;-56
2023/06/14 03:59:04;;;;;;;5.23;4.60;;;18.00;99.90;;;18.25;80.24;94718.03;5034659;28;20476;-58
2023/06/14 04:01:33;;;;;;;4.63;4.33;;;18.00;99.90;;;18.26;80.10;94717.84;5029818;28;20506;-53
2023/06/14 04:04:00;;;;;;;5.13;4.13;;;18.00;99.90;;;18.31;80.14;94719.09;5026751;28;20564;-58
2023/06/14 04:06:32;;;;;;;5.03;4.10;;;18.10;99.90;;;18.34;79.71;94713.41;5033461;28;20455;-55
2023/06/14 04:09:03;;;;;;;5.13;4.63;;;18.10;99.90;;;18.39;80.15;94721.66;5033444;28;20492;-57
2023/06/14 04:11:31;;;;;;;4.73;4.33;;;18.10;99.90;;;18.42;79.28;94715.94;5029706;28;20449;-54
2023/06/14 04:13:59;;;;;;;5.50;4.80;;;18.10;99.90;;;18.45;79.46;94716.38;5029848;28;20476;-55
2023/06/14 04:16:27;;;;;;;4.53;4.23;;;18.20;99.90;;;18.48;78.92;94714.31;5033260;28;20461;-54
2023/06/14 04:18:55;;;;;;;10.03;5.70;;;18.20;99.90;;;18.51;79.39;94716.59;5035877;28;20844;-59
2023/06/14 04:21:23;;;;;;;4.87;4.47;;;18.20;99.90;;;18.56;78.94;94719.50;5028323;28;21004;-53
2023/06/14 04:23:52;;;;;;;5.53;3.90;;;18.30;99.90;;;18.58;78.91;94718.31;5028709;28;20947;-58
2023/06/14 04:26:20;;;;;;;5.60;4.80;;;18.30;99.90;;;18.62;78.67;94724.91;5032070;28;20464;-59
2023/06/14 04:28:49;;;;;;;6.77;5.70;;;18.30;99.90;;;18.67;78.97;94720.81;5031425;28;20492;-54
2023/06/14 04:31:16;;;;;;;12.67;5.50;;;18.40;99.90;;;18.71;78.72;94724.75;5035095;28;20457;-54
2023/06/14 04:33:46;;;;;;;6.80;5.10;;;18.40;99.90;;;18.75;78.54;94724.19;5030187;28;20459;-54
2023/06/14 04:36:13;;;;;;;4.93;4.40;;;18.50;99.90;;;18.79;78.47;94722.78;5033741;28;20502;-56
2023/06/14 04:38:42;;;;;;;5.67;5.00;;;18.50;99.90;;;18.85;78.65;94725.69;5028444;28;20953;-55
2023/06/14 04:41:11;;;;;;;8.93;4.90;;;18.60;99.90;;;18.92;78.69;94723.91;5031826;28;20461;-60
2023/06/14 04:43:38;;;;;;;9.40;5.30;;;18.60;99.90;;;18.98;78.14;94726.63;5034299;28;20456;-56
2023/06/14 04:46:10;;;;;;;10.80;5.23;;;18.70;99.90;;;19.06;77.82;94722.97;5030354;28;20909;-57
2023/06/14 04:48:39;;;;;;;8.10;4.80;;;18.80;99.90;;;19.15;77.86;94724.47;5027889;28;20530;-55
2023/06/14 04:51:08;;;;;;;8.57;5.47;;;18.90;99.90;;;19.27;77.61;94734.56;5031088;28;20459;-57
2023/06/14 04:53:35;;;;;;;5.93;5.33;;;18.90;99.90;;;19.37;77.67;94731.56;5031090;28;20516;-54
2023/06/14 04:56:03;;;;;;;7.43;5.27;;;19.00;99.90;;;19.46;77.18;94739.19;5030166;28;20473;-57
2023/06/14 04:58:30;;;;;;;6.17;5.40;;;19.10;99.90;;;19.51;77.00;94735.94;5031107;28;21275;-57
2023/06/14 05:00:59;;;;;;;8.93;5.20;;;19.20;99.90;;;19.57;77.18;94740.47;5030072;28;20475;-58
2023/06/14 05:03:26;;;;;;;8.23;5.80;;;19.30;99.90;;;19.62;76.79;94745.22;5033953;28;20878;-55
2023/06/14 05:05:54;;;;;;;8.47;5.83;;;19.30;99.90;;;19.63;76.30;94742.34;5034154;28;20457;-57
2023/06/14 05:08:24;;;;;;;12.73;5.70;;;19.40;99.90;;;19.65;76.39;94747.47;5032268;28;20505;-54
2023/06/14 05:10:51;;;;;;;7.30;6.20;;;19.40;99.90;;;19.64;75.60;94752.00;5032038;28;20472;-54
2023/06/14 05:13:19;;;;;;;8.63;6.40;;;19.40;99.90;;;19.64;75.64;94752.00;5033619;28;20543;-58
2023/06/14 05:15:47;;;;;;;20.50;6.77;;;19.40;99.90;;;19.66;75.65;94757.94;5034261;28;20498;-54
2023/06/14 05:18:14;;;;;;;6.53;5.93;;;19.40;99.90;;;19.71;75.64;94757.34;5032141;28;20452;-58
2023/06/14 05:20:42;;;;;;;6.93;5.90;;;19.40;99.90;;;19.75;75.55;94752.44;5031077;28;20473;-58
2023/06/14 05:23:14;;;;;;;6.67;6.07;;;19.40;99.90;;;19.79;75.43;94759.06;5034893;28;20566;-57
2023/06/14 05:25:44;;;;;;;11.50;7.00;;;19.50;99.90;;;19.82;75.19;94764.81;5031601;28;20461;-57
2023/06/14 05:28:11;;;;;;;6.97;5.87;;;19.50;99.90;;;19.84;75.13;94775.28;5035812;28;20495;-58
2023/06/14 05:30:39;;;;;;;6.43;5.83;;;19.60;99.90;;;19.85;74.90;94774.28;5029480;28;20472;-58
2023/06/14 05:33:06;;;;;;;10.73;6.23;;;19.60;99.90;;;19.86;75.06;94783.91;5030979;28;20452;-57
2023/06/14 05:35:34;;;;;;;18.97;6.57;;;19.60;99.90;;;19.90;75.04;94781.69;5030606;28;20507;-53
2023/06/14 05:38:01;;;;;;;6.27;5.60;;;19.60;99.90;;;19.91;75.35;94784.16;5032657;28;21056;-55
2023/06/14 05:40:28;;;;;;;7.13;6.33;;;19.60;99.90;;;19.94;75.19;94777.56;5034235;28;20587;-57
2023/06/14 05:42:57;;;;;;;9.90;7.13;;;19.60;99.90;;;19.96;74.92;94786.22;5030957;28;20455;-56
2023/06/14 05:45:24;;;;;;;8.03;6.13;;;19.70;99.90;;;19.94;74.40;94775.75;5028376;28;21029;-56
2023/06/14 05:47:52;;;;;;;7.90;6.00;;;19.70;99.90;;;19.92;74.35;94783.09;5031739;28;20503;-57
2023/06/14 05:50:19;;;;;;;11.40;6.40;;;19.60;99.90;;;19.88;74.75;94782.69;5032778;28;20475;-53
2023/06/14 05:52:46;;;;;;;7.83;6.20;;;19.60;99.90;;;19.84;74.84;94784.09;5035718;28;20464;-54
2023/06/14 05:55:13;;;;;;;9.83;6.13;;;19.60;99.90;;;19.80;74.86;94784.72;5028008;28;20535;-54
2023/06/14 05:57:41;;;;;;;6.23;5.73;;;19.50;99.90;;;19.78;75.09;94784.91;5033366;28;20457;-55
2023/06/14 06:00:14;;;;;;;8.70;6.67;;;19.50;99.90;;;19.78;75.28;94789.44;5028070;28;20476;-54
2023/06/14 06:02:42;;;;;;;6.63;5.50;;;19.50;99.90;;;19.80;75.38;94784.72;5030335;28;20456;-55
2023/06/14 06:05:09;;;;;;;15.23;5.90;;;19.50;99.90;;;19.84;75.47;94788.63;5029415;28;21024;-57
2023/06/14 06:07:37;;;;;;;6.40;5.60;;;19.50;99.90;;;19.90;75.42;94792.38;5033127;28;20451;-58
2023/06/14 06:10:05;;;;;;;6.80;5.70;;;19.60;99.90;;;19.94;75.42;94789.09;5030493;28;20480;-58
2023/06/14 06:12:33;;;;;;;6.80;6.20;;;19.60;99.90;;;20.00;75.22;94798.97;5025842;28;20499;-56
2023/06/14 06:15:00;;;;;;;10.60;6.40;;;19.70;99.90;;;20.05;74.74;94801.03;5028371;28;20544;-55
2023/06/14 06:17:29;;;;;;;11.97;7.70;;;19.70;99.90;;;20.09;74.63;94796.13;5029457;28;20970;-55
2023/06/14 06:19:56;;;;;;;7.50;6.70;;;19.80;99.90;;;20.11;74.32;94794.91;5033294;28;20545;-55
2023/06/14 06:22:24;;;;;;;8.00;7.30;;;19.80;99.90;;;20.12;73.84;94793.03;5030175;28;20457;-55
2023/06/14 06:24:51;;;;;;;9.00;6.63;;;19.80;99.90;;;20.13;73.69;94800.03;5033112;28;20472;-53
2023/06/14 06:27:20;;;;;;;11.30;6.70;;;19.80;99.90;;;20.15;73.74;94801.47;5030498;28;20882;-53
2023/06/14 06:29:48;;;;;;;9.43;7.63;;;19.80;99.90;;;20.21;73.77;94803.34;5033850;28;20554;-55
2023/06/14 06:32:15;;;;;;;7.47;6.77;;;19.90;99.90;;;20.27;73.83;94803.56;5027261;28;20539;-57
2023/06/14 06:34:44;;;;;;;7.00;6.30;;;19.90;99.90;;;20.32;73.17;94799.25;5034687;28;20553;-54
2023/06/14 06:37:12;;;;;;;6.20;5.60;;;20.00;99.90;;;20.37;73.24;94796.81;5026292;28;20452;-58
2023/06/14 06:39:39;;;;;;;7.30;6.70;;;20.10;99.90;;;20.48;73.31;94794.56;5026998;28;20464;-57
2023/06/14 06:42:07;;;;;;;11.37;7.57;;;20.20;99.90;;;20.62;72.91;94798.06;5028533;28;20456;-57
2023/06/14 06:44:34;;;;;;;10.23;8.00;;;20.20;99.90;;;20.72;72.77;94795.88;5034291;28;20476;-55
2023/06/14 06:47:02;;;;;;;10.30;6.77;;;20.40;99.90;;;20.80;72.04;94795.66;5030581;28;20455;-53
2023/06/14 06:49:29;;;;;;;7.50;6.83;;;20.50;99.90;;;20.91;71.64;94794.22;5035879;28;20575;-55
2023/06/14 06:52:05;;;;;;;15.83;7.77;;;20.60;99.90;;;21.04;71.73;94793.41;5032549;28;20483;-57
2023/06/14 06:54:32;;;;;;;12.10;7.73;;;20.70;99.90;;;21.20;71.53;94794.81;5031385;28;20969;-58
2023/06/14 06:56:59;;;;;;;14.27;8.30;;;20.80;99.90;;;21.37;70.84;94798.69;5033121;28;20451;-55
2023/06/14 06:59:27;;;;;;;14.60;8.30;;;21.00;99.90;;;21.60;70.51;94803.63;5031496;28;20906;-57
2023/06/14 07:01:54;;;;;;;9.73;7.80;;;21.20;99.90;;;21.92;70.44;94797.53;5033136;28;20478;-57
2023/06/14 07:04:21;;;;;;;10.30;8.00;;;21.50;99.90;;;22.23;70.00;94802.16;5028301;28;20476;-58
2023/06/14 07:06:48;;;;;;;12.13;7.97;;;21.70;99.90;;;22.51;69.28;94799.13;5033087;28;20452;-58
2023/06/14 07:09:19;;;;;;;13.83;9.10;;;22.00;99.90;;;22.72;68.70;94795.25;5030724;28;20503;-58
2023/06/14 07:11:47;;;;;;;7.80;7.00;;;22.20;99.90;;;22.90;68.30;94799.06;5031282;28;20448;-55
2023/06/14 07:14:15;;;;;;;11.33;7.70;;;22.40;99.90;;;23.07;67.63;94793.97;5032494;28;20473;-57
2023/06/14 07:16:42;;;;;;;8.77;7.90;;;22.60;99.90;;;23.23;67.16;94798.81;5034306;28;20444;-57
2023/06/14 07:19:10;;;;;;;9.70;8.80;;;22.80;99.90;;;23.36;63.19;94794.34;5041056;28;20472;-56
2023/06/14 07:21:38;;;;;;;8.33;7.37;;;22.90;99.90;;;23.36;64.58;94794.34;5033868;28;20459;-54
2023/06/14 07:24:07;;;;;;;8.50;7.70;;;23.00;99.90;;;23.35;64.44;94790.06;5035972;28;20551;-57
2023/06/14 07:26:36;;;;;;;11.00;8.27;;;23.00;99.90;;;23.35;64.38;94788.19;5034249;28;20465;-55
2023/06/14 07:29:03;;;;;;;8.87;7.97;;;23.00;99.90;;;23.37;64.39;94794.13;5035319;28;20558;-59
2023/06/14 07:31:30;;;;;;;12.73;10.60;;;23.00;99.90;;;23.35;64.37;94792.72;5036796;28;20470;-56
2023/06/14 07:33:58;;;;;;;10.67;9.60;;;23.00;99.90;;;23.25;63.63;94796.75;5032530;28;20475;-55
2023/06/14 07:36:25;;;;;;;10.63;9.63;;;22.90;99.90;;;23.17;64.25;94791.63;5038072;28;21180;-58
2023/06/14 07:38:52;;;;;;;13.80;9.90;;;22.90;99.90;;;23.11;64.28;94786.34;5031301;28;20538;-57
2023/06/14 07:41:19;;;;;;;11.23;10.03;;;22.80;99.90;;;23.11;63.82;94781.78;5038534;28;20460;-55
2023/06/14 07:43:48;;;;;;;12.37;10.40;;;22.80;99.90;;;23.19;63.97;94789.56;5032715;28;20451;-58
2023/06/14 07:46:15;;;;;;;13.40;9.10;;;22.80;99.90;;;23.20;63.68;94788.50;5032803;28;20464;-59
2023/06/14 07:48:43;;;;;;;13.43;10.73;;;22.80;99.90;;;23.23;63.88;94798.81;5033868;28;20492;-59
2023/06/14 07:51:10;;;;;;;14.33;10.47;;;22.90;99.90;;;23.24;63.41;94797.78;5037686;28;20460;-55
2023/06/14 07:53:37;;;;;;;18.53;12.57;;;22.90;99.90;;;23.21;63.84;94800.91;5032017;28;20511;-57
2023/06/14 07:56:05;;;;;;;30.63;11.83;;;22.90;99.90;;;23.13;63.03;94795.81;5035307;28;20817;-55
2023/06/14 07:58:32;;;;;;;13.90;11.77;;;22.80;99.90;;;23.07;62.67;94802.84;5033398;28;20499;-58
2023/06/14 08:01:03;;;;;;;14.60;12.30;;;22.70;99.90;;;23.05;63.42;94812.13;5035401;28;20514;-55
2023/06/14 08:03:31;;;;;;;16.90;12.30;;;22.70;99.90;;;23.06;62.87;94809.25;5034813;28;20455;-58
2023/06/14 08:05:58;;;;;;;16.27;11.13;;;22.70;99.90;;;23.18;63.97;94809.38;5033910;28;20456;-58
2023/06/14 08:08:25;;;;;;;14.17;11.30;;;22.80;99.90;;;23.43;63.75;94805.84;5035566;28;20456;-53
2023/06/14 08:10:53;;;;;;;15.17;10.20;;;23.00;99.90;;;23.77;62.51;94817.88;5032875;28;20526;-57
2023/06/14 08:13:20;;;;;;;19.80;10.10;;;23.30;99.90;;;24.18;63.25;94823.63;5031902;28;20488;-54
2023/06/14 08:15:47;;;;;;;12.00;8.93;;;23.60;99.90;;;24.60;61.77;94818.38;5034821;28;20525;-55
2023/06/14 08:18:16;;;;;;;15.10;9.90;;;24.00;99.90;;;25.03;60.99;94828.06;5029924;28;20969;-59
2023/06/14 08:20:43;;;;;;;11.80;9.90;;;24.40;99.90;;;25.36;59.76;94834.81;5029913;28;20503;-58
2023/06/14 08:23:11;;;;;;;12.03;10.50;;;24.80;99.90;;;25.57;59.40;94825.31;5036841;28;21452;-54
2023/06/14 08:25:38;;;;;;;11.17;9.90;;;25.00;99.90;;;25.74;58.35;94825.44;5030996;28;21465;-55
2023/06/14 08:28:06;;;;;;;14.70;10.83;;;25.20;99.90;;;25.94;57.13;94813.47;5037826;28;20536;-58
2023/06/14 08:30:33;;;;;;;10.77;9.77;;;25.40;99.90;;;26.15;57.25;94820.13;5031574;28;20492;-59
2023/06/14 08:33:00;;;;;;;10.97;9.97;;;25.70;99.90;;;26.29;57.02;94826.88;5036047;28;20536;-57
2023/06/14 08:35:29;;;;;;;13.03;9.53;;;25.80;99.90;;;26.36;56.44;94829.44;5027409;28;20503;-58
2023/06/14 08:37:57;;;;;;;12.53;10.50;;;25.90;99.80;;;26.47;56.41;94820.47;5032587;28;20451;-56
2023/06/14 08:40:24;;;;;;;12.13;10.60;;;26.00;99.40;;;26.51;55.78;94826.22;5034726;28;20584;-58
2023/06/14 08:42:53;;;;;;;10.73;8.60;;;26.00;99.10;;;26.52;56.17;94818.94;5032413;28;20466;-56
2023/06/14 08:45:21;;;;;;;13.10;9.00;;;26.10;98.90;;;26.52;55.67;94816.25;5030386;28;20567;-59
2023/06/14 08:47:51;;;;;;;10.73;8.63;;;26.10;98.70;;;26.50;55.72;94810.28;5033968;28;20462;-55
2023/06/14 08:50:23;;;;;;;10.40;9.40;;;26.00;98.50;;;26.46;55.77;94810.75;5033982;28;20499;-58
2023/06/14 08:52:57;;;;;;;10.73;8.83;;;26.00;98.30;;;26.40;55.68;94803.63;5027655;28;20445;-55
2023/06/14 08:55:26;;;;;;;12.43;8.90;;;26.00;98.20;;;26.36;55.88;94813.25;5030686;28;21066;-55
2023/06/14 08:57:55;;;;;;;9.40;8.43;;;26.00;98.20;;;26.34;55.81;94811.88;5035406;28;20459;-58
2023/06/14 09:00:22;;;;;;;12.70;8.63;;;25.90;98.10;;;26.33;55.40;94811.03;5031569;28;20480;-54
2023/06/14 09:02:50;;;;;;;12.10;9.70;;;25.90;97.80;;;26.35;55.53;94808.91;5033858;28;20460;-58
2023/06/14 09:05:18;;;;;;;15.80;9.80;;;25.90;97.80;;;26.34;54.86;94815.38;5032750;28;20620;-55
2023/06/14 09:07:49;;;;;;;10.03;9.00;;;25.90;97.50;;;26.31;55.20;94813.16;5037632;28;20451;-55
2023/06/14 09:10:17;;;;;;;10.07;8.67;;;25.90;97.50;;;26.26;55.08;94810.38;5036971;28;20491;-59
2023/06/14 09:12:45;;;;;;;19.23;10.90;;;25.90;97.20;;;26.19;54.63;94801.59;5029855;28;20460;-56
2023/06/14 09:15:13;;;;;;;10.73;9.73;;;25.80;96.70;;;26.07;54.78;94796.22;5031857;28;20474;-59
2023/06/14 09:17:41;;;;;;;10.70;9.53;;;25.70;96.80;;;25.99;54.92;94794.72;5030845;28;20464;-57
2023/06/14 09:20:10;;;;;;;12.90;9.50;;;25.60;96.90;;;25.91;54.73;94795.88;5035443;28;20536;-56
2023/06/14 09:22:38;;;;;;;15.87;9.97;;;25.60;96.50;;;25.88;54.66;94790.16;5030369;28;20627;-58
2023/06/14 09:25:07;;;;;;;11.77;9.20;;;25.50;96.40;;;25.92;54.87;94794.84;5035386;28;20566;-58
2023/06/14 09:27:39;;;;;;;10.70;9.63;;;25.50;96.70;;;25.99;54.86;94792.03;5027634;28;20968;-58
2023/06/14 09:30:09;;;;;;;11.07;8.97;;;25.50;96.60;;;26.08;54.73;94796.00;5034264;28;20496;-56
2023/06/14 09:32:39;;;;;;;10.63;9.60;;;25.60;96.70;;;26.27;54.49;94791.25;5030074;28;20456;-55
2023/06/14 09:35:07;;;;;;;9.40;8.60;;;25.80;96.50;;;26.47;53.65;94795.38;5034911;28;20482;-57
2023/06/14 09:37:35;;;;;;;10.27;9.33;;;25.90;96.40;;;26.61;52.79;94791.31;5031963;28;20476;-57
2023/06/14 09:40:02;;;;;;;11.87;9.40;;;26.10;95.50;;;26.65;52.13;94786.28;5030298;28;20477;-55
2023/06/14 09:42:29;;;;;;;14.37;9.67;;;26.20;94.70;;;26.64;52.62;94792.72;5030950;28;20474;-55
2023/06/14 09:44:58;;;;;;;10.97;9.77;;;26.20;94.90;;;26.61;53.04;94788.63;5028608;28;20575;-58
2023/06/14 09:47:25;;;;;;;9.30;8.50;;;26.20;95.00;;;26.58;52.95;94783.72;5033722;28;20456;-56
2023/06/14 09:49:54;;;;;;;15.07;9.60;;;26.10;94.80;;;26.64;53.22;94781.94;5031697;28;21009;-56
2023/06/14 09:52:22;;;;;;;11.20;9.40;;;26.10;95.20;;;26.71;52.78;94769.16;5034914;28;20554;-55
2023/06/14 09:54:49;;;;;;;10.43;8.97;;;26.30;95.00;;;26.82;52.66;94773.66;5029174;28;20480;-55
2023/06/14 09:57:18;;;;;;;9.30;8.50;;;26.30;94.70;;;26.87;52.21;94778.31;5032493;28;20535;-54
2023/06/14 09:59:47;;;;;;;12.90;9.77;;;26.40;94.60;;;26.92;51.71;94770.28;5029604;28;21030;-54
2023/06/14 10:02:24;;;;;;;12.10;9.50;;;26.40;93.60;;;26.97;51.63;94766.84;5033922;28;20455;-58
2023/06/14 10:05:00;;;;;;;13.77;9.23;;;26.50;93.90;;;27.07;52.09;94768.94;5026918;28;20575;-57
2023/06/14 10:07:30;;;;;;;11.00;8.23;;;26.60;94.20;;;27.27;52.03;94763.03;5032148;28;20505;-57
2023/06/14 10:09:57;;;;;;;10.67;8.87;;;26.70;94.00;;;27.50;51.38;94762.84;5033488;28;20896;-56
2023/06/14 10:12:24;;;;;;;10.23;8.87;;;27.00;93.80;;;27.73;50.88;94760.97;5027058;28;20968;-58
2023/06/14 10:14:53;;;;;;;15.43;9.80;;;27.20;93.40;;;27.89;50.90;94751.19;5033277;28;20466;-56
2023/06/14 10:17:28;;;;;;;10.83;9.47;;;27.30;92.80;;;28.00;50.33;94744.88;5029821;28;20483;-58
2023/06/14 10:20:19;;;;;;;12.90;9.43;;;27.50;92.90;;;28.07;49.68;94750.91;5034294;28;20479;-56